createdAt,value
2018-01-26T00:01:44.355Z,4.00
2018-01-26T00:04:13.174Z,4.50
2018-01-26T00:06:42.921Z,4.30
2018-01-26T00:32:02.295Z,3.80
2018-01-26T00:34:29.823Z,4.73
2018-01-26T00:36:57.356Z,4.20
2018-01-26T00:39:25.950Z,3.87
2018-01-26T00:41:53.481Z,4.30
2018-01-26T00:44:21.704Z,4.07
2018-01-26T00:46:50.299Z,4.53
2018-01-26T00:49:18.230Z,4.20
2018-01-26T00:51:46.535Z,5.10
2018-01-26T00:54:14.866Z,4.30
2018-01-26T00:56:43.276Z,4.83
2018-01-26T00:59:11.169Z,4.60
2018-01-26T01:01:39.006Z,4.57
2018-01-26T01:04:06.521Z,4.53
2018-01-26T01:06:34.043Z,5.10
2018-01-26T01:09:01.589Z,4.87
2018-01-26T01:11:29.872Z,5.20
2018-01-26T01:13:57.398Z,5.20
2018-01-26T01:16:24.941Z,5.10
2018-01-26T01:18:52.690Z,5.77
2018-01-26T01:21:21.189Z,5.17
2018-01-26T01:23:49.215Z,5.53
2018-01-26T01:26:17.257Z,5.10
2018-01-26T01:28:45.295Z,5.20
2018-01-26T01:31:14.459Z,5.50
2018-01-26T01:33:43.144Z,4.87
2018-01-26T01:36:12.855Z,5.00
2018-01-26T01:38:40.772Z,6.13
2018-01-26T01:41:08.324Z,5.77
2018-01-26T01:43:35.858Z,6.10
2018-01-26T01:46:03.400Z,6.70
2018-01-26T01:48:30.921Z,6.43
2018-01-26T01:50:59.210Z,5.37
2018-01-26T01:53:27.532Z,5.87
2018-01-26T01:55:55.069Z,5.97
2018-01-26T01:58:22.722Z,6.67
2018-01-26T02:00:50.370Z,6.93
2018-01-26T02:03:18.025Z,7.57
2018-01-26T02:05:46.391Z,6.67
2018-01-26T02:08:14.549Z,7.30
2018-01-26T02:10:43.672Z,6.80
2018-01-26T02:13:12.706Z,6.40
2018-01-26T02:15:40.329Z,6.67
2018-01-26T02:18:07.881Z,6.00
2018-01-26T02:20:35.397Z,6.37
2018-01-26T02:23:02.933Z,6.17
2018-01-26T02:25:30.452Z,6.77
2018-01-26T02:27:57.978Z,7.00
2018-01-26T02:30:25.517Z,6.30
2018-01-26T02:32:53.193Z,6.47
2018-01-26T02:35:20.953Z,6.57
2018-01-26T02:37:48.922Z,6.70
2018-01-26T02:40:17.431Z,7.20
2018-01-26T02:42:46.726Z,6.60
2018-01-26T02:45:16.104Z,7.43
2018-01-26T02:47:44.282Z,7.90
2018-01-26T02:50:12.334Z,6.67
2018-01-26T02:52:39.933Z,6.23
2018-01-26T02:55:07.477Z,6.93
2018-01-26T02:57:35.005Z,6.40
2018-01-26T03:00:03.623Z,6.70
2018-01-26T03:02:31.156Z,6.83
2018-01-26T03:04:58.678Z,6.90
2018-01-26T03:07:26.225Z,7.20
2018-01-26T03:09:54.084Z,7.70
2018-01-26T03:12:21.930Z,7.03
2018-01-26T03:14:50.386Z,6.53
2018-01-26T03:17:18.726Z,7.23
2018-01-26T03:19:46.659Z,7.00
2018-01-26T03:22:15.651Z,7.23
2018-01-26T03:24:47.142Z,7.30
2018-01-26T03:27:15.686Z,7.23
2018-01-26T03:29:44.220Z,7.77
2018-01-26T03:32:13.565Z,7.33
2018-01-26T03:34:42.514Z,7.63
2018-01-26T03:37:10.132Z,8.03
2018-01-26T03:39:37.680Z,7.70
2018-01-26T03:42:05.229Z,7.67
2018-01-26T03:44:32.746Z,8.27
2018-01-26T03:47:00.268Z,8.80
2018-01-26T03:49:27.808Z,7.97
2018-01-26T03:51:55.336Z,7.87
2018-01-26T03:54:23.122Z,8.23
2018-01-26T03:56:51.837Z,7.23
2018-01-26T03:59:20.315Z,7.43
2018-01-26T04:01:48.269Z,7.93
2018-01-26T04:04:16.972Z,7.37
2018-01-26T04:06:44.739Z,8.00
2018-01-26T04:09:14.142Z,7.80
2018-01-26T04:11:43.953Z,8.10
2018-01-26T04:14:12.990Z,8.20
2018-01-26T04:16:40.721Z,8.33
2018-01-26T04:19:08.293Z,8.80
2018-01-26T04:21:35.808Z,8.20
2018-01-26T04:24:03.366Z,8.60
2018-01-26T04:26:31.709Z,8.17
2018-01-26T04:28:59.224Z,8.87
2018-01-26T04:31:26.745Z,8.20
2018-01-26T04:33:54.291Z,7.77
2018-01-26T04:36:21.903Z,8.33
2018-01-26T04:38:49.859Z,7.77
2018-01-26T04:41:17.756Z,8.17
2018-01-26T04:43:46.041Z,8.17
2018-01-26T04:46:14.361Z,7.03
2018-01-26T04:48:43.171Z,7.17
2018-01-26T04:51:13.045Z,7.77
2018-01-26T04:53:41.022Z,7.47
2018-01-26T04:56:09.450Z,6.60
2018-01-26T04:58:36.978Z,7.13
2018-01-26T05:01:05.266Z,8.93
2018-01-26T05:03:32.826Z,8.97
2018-01-26T05:06:00.353Z,9.03
2018-01-26T05:08:27.873Z,9.13
2018-01-26T05:10:55.454Z,10.57
2018-01-26T05:13:23.154Z,10.77
2018-01-26T05:15:51.591Z,11.23
2018-01-26T05:18:19.337Z,11.40
2018-01-26T05:20:47.409Z,10.97
2018-01-26T05:23:15.962Z,9.30
2018-01-26T05:25:44.292Z,8.90
2018-01-26T05:28:13.065Z,8.87
2018-01-26T05:30:43.337Z,7.93
2018-01-26T05:33:12.440Z,9.37
2018-01-26T05:35:40.143Z,9.23
2018-01-26T05:38:11.656Z,9.47
2018-01-26T05:40:39.526Z,9.07
2018-01-26T05:43:07.814Z,8.83
2018-01-26T05:45:36.122Z,8.57
2018-01-26T05:48:03.657Z,8.47
2018-01-26T05:50:31.944Z,8.03
2018-01-26T05:52:59.469Z,8.83
2018-01-26T05:55:27.293Z,7.90
2018-01-26T05:57:54.819Z,7.70
2018-01-26T06:00:23.586Z,8.37
2018-01-26T06:02:52.099Z,8.07
2018-01-26T06:05:20.622Z,8.27
2018-01-26T06:07:48.568Z,8.17
2018-01-26T06:10:17.151Z,8.67
2018-01-26T06:12:45.602Z,8.07
2018-01-26T06:15:14.715Z,8.30
2018-01-26T06:17:43.008Z,7.40
2018-01-26T06:20:11.739Z,8.60
2018-01-26T06:22:39.338Z,8.20
2018-01-26T06:25:07.482Z,7.97
2018-01-26T06:27:35.028Z,8.67
2018-01-26T06:30:03.041Z,8.03
2018-01-26T06:32:30.581Z,8.23
2018-01-26T06:34:58.133Z,7.63
2018-01-26T06:37:25.652Z,7.63
2018-01-26T06:39:53.193Z,8.47
2018-01-26T06:42:21.904Z,7.63
2018-01-26T06:44:49.957Z,7.53
2018-01-26T06:47:17.613Z,7.73
2018-01-26T06:49:45.566Z,8.33
2018-01-26T06:52:13.543Z,8.53
2018-01-26T06:54:41.316Z,7.57
2018-01-26T06:57:09.358Z,7.83
2018-01-26T06:59:37.892Z,7.80
2018-01-26T07:02:05.747Z,7.90
2018-01-26T07:04:33.318Z,7.53
2018-01-26T07:07:00.857Z,7.93
2018-01-26T07:09:28.745Z,8.67
2018-01-26T07:11:56.271Z,7.43
2018-01-26T07:14:24.557Z,7.57
2018-01-26T07:16:52.356Z,7.20
2018-01-26T07:19:19.921Z,7.57
2018-01-26T07:21:47.661Z,7.57
2018-01-26T07:24:15.329Z,7.00
2018-01-26T07:26:42.986Z,6.73
2018-01-26T07:29:10.553Z,6.80
2018-01-26T07:31:38.116Z,7.10
2018-01-26T07:34:05.633Z,7.13
2018-01-26T07:36:33.431Z,7.90
2018-01-26T07:39:01.304Z,6.10
2018-01-26T07:41:28.837Z,6.50
2018-01-26T07:43:56.362Z,6.70
2018-01-26T07:46:23.909Z,6.47
2018-01-26T07:48:51.453Z,6.17
2018-01-26T07:51:19.329Z,6.50
2018-01-26T07:53:47.020Z,6.30
2018-01-26T07:56:15.429Z,6.13
2018-01-26T07:58:43.418Z,6.43
2018-01-26T08:01:11.050Z,5.70
2018-01-26T08:03:38.709Z,6.03
2018-01-26T08:06:07.053Z,6.07
2018-01-26T08:08:34.997Z,5.93
2018-01-26T08:11:02.531Z,5.77
2018-01-26T08:13:30.052Z,5.87
2018-01-26T08:15:57.609Z,4.93
2018-01-26T08:18:25.130Z,5.30
2018-01-26T08:20:52.698Z,5.53
2018-01-26T08:23:20.413Z,4.83
2018-01-26T08:25:48.978Z,3.80
2018-01-26T08:28:17.345Z,4.43
2018-01-26T08:30:45.506Z,4.60
2018-01-26T08:33:13.349Z,4.40
2018-01-26T08:35:41.932Z,4.63
2018-01-26T08:38:09.701Z,4.60
2018-01-26T08:40:38.086Z,4.50
2018-01-26T08:43:05.847Z,4.10
2018-01-26T08:45:33.489Z,4.77
2018-01-26T08:48:01.021Z,4.67
2018-01-26T08:50:28.551Z,4.87
2018-01-26T08:52:57.224Z,4.67
2018-01-26T08:55:28.282Z,5.03
2018-01-26T08:57:55.801Z,4.90
2018-01-26T09:00:23.349Z,5.30
2018-01-26T09:02:51.637Z,5.93
2018-01-26T09:05:19.518Z,5.70
2018-01-26T09:07:47.161Z,5.23
2018-01-26T09:10:15.048Z,5.30
2018-01-26T09:12:44.336Z,5.00
2018-01-26T09:15:13.050Z,4.93
2018-01-26T09:17:41.450Z,4.90
2018-01-26T09:20:08.973Z,5.17
2018-01-26T09:22:36.598Z,4.57
2018-01-26T09:25:04.890Z,5.03
2018-01-26T09:27:34.141Z,4.20
2018-01-26T09:30:01.751Z,4.50
2018-01-26T09:32:30.073Z,4.30
2018-01-26T09:34:57.590Z,4.43
2018-01-26T09:37:25.381Z,5.17
2018-01-26T09:39:52.902Z,5.17
2018-01-26T09:42:21.217Z,4.90
2018-01-26T09:44:48.979Z,4.30
2018-01-26T09:47:16.732Z,4.87
2018-01-26T09:49:44.712Z,4.83
2018-01-26T09:52:12.582Z,4.47
2018-01-26T09:54:40.161Z,3.90
2018-01-26T09:57:07.833Z,4.00
2018-01-26T09:59:35.655Z,3.40
2018-01-26T10:02:03.227Z,4.03
2018-01-26T10:04:30.794Z,4.53
2018-01-26T10:06:58.352Z,3.87
2018-01-26T10:09:25.986Z,4.30
2018-01-26T10:11:54.286Z,4.13
2018-01-26T10:14:21.831Z,4.20
2018-01-26T10:16:49.550Z,4.30
2018-01-26T10:19:17.378Z,3.97
2018-01-26T10:21:46.056Z,3.70
2018-01-26T10:24:13.837Z,3.90
2018-01-26T10:26:41.497Z,4.27
2018-01-26T10:29:09.690Z,4.30
2018-01-26T10:31:38.024Z,3.97
2018-01-26T10:34:06.569Z,4.10
2018-01-26T10:36:34.154Z,4.57
2018-01-26T10:39:02.438Z,3.70
2018-01-26T10:41:30.729Z,4.40
2018-01-26T10:43:58.624Z,4.33
2018-01-26T10:46:26.145Z,4.13
2018-01-26T10:48:54.524Z,3.77
2018-01-26T10:51:22.835Z,4.33
2018-01-26T10:53:50.502Z,4.80
2018-01-26T10:56:18.255Z,4.43
2018-01-26T10:58:46.324Z,4.23
2018-01-26T11:01:14.230Z,4.27
2018-01-26T11:03:43.389Z,3.53
2018-01-26T11:06:11.207Z,4.40
2018-01-26T11:08:39.525Z,4.10
2018-01-26T11:11:07.117Z,3.93
2018-01-26T11:13:36.506Z,4.30
2018-01-26T11:16:04.039Z,4.20
2018-01-26T11:18:31.614Z,3.80
2018-01-26T11:20:59.184Z,4.27
2018-01-26T11:23:26.933Z,4.50
2018-01-26T11:25:54.453Z,5.10
2018-01-26T11:28:22.041Z,4.83
2018-01-26T11:30:50.457Z,4.60
2018-01-26T11:33:18.980Z,4.83
2018-01-26T11:35:47.723Z,5.10
2018-01-26T11:38:15.732Z,4.40
2018-01-26T11:40:44.557Z,4.23
2018-01-26T11:43:12.209Z,4.50
2018-01-26T11:45:40.669Z,5.40
2018-01-26T11:48:08.213Z,4.80
2018-01-26T11:50:36.145Z,4.73
2018-01-26T11:53:03.808Z,4.90
2018-01-26T11:55:31.341Z,4.90
2018-01-26T11:57:59.651Z,5.50
2018-01-26T12:00:27.169Z,5.13
2018-01-26T12:02:55.455Z,4.93
2018-01-26T12:05:23.771Z,5.00
2018-01-26T12:07:51.747Z,4.60
2018-01-26T12:10:19.493Z,5.23
2018-01-26T12:12:47.554Z,4.80
2018-01-26T12:15:15.707Z,4.90
2018-01-26T12:17:45.427Z,5.00
2018-01-26T12:20:13.767Z,5.00
2018-01-26T12:22:43.242Z,4.50
2018-01-26T12:25:11.450Z,4.57
2018-01-26T12:27:39.273Z,5.27
2018-01-26T12:30:06.825Z,4.80
2018-01-26T12:32:34.391Z,5.00
2018-01-26T12:35:01.958Z,3.93
2018-01-26T12:37:29.495Z,4.37
2018-01-26T12:39:57.014Z,4.17
2018-01-26T12:42:24.942Z,4.60
2018-01-26T12:44:52.707Z,4.10
2018-01-26T12:47:20.786Z,4.63
2018-01-26T12:49:49.057Z,4.33
2018-01-26T12:52:17.261Z,5.13
2018-01-26T12:54:45.710Z,4.37
2018-01-26T12:57:14.553Z,5.20
2018-01-26T12:59:42.493Z,6.77
2018-01-26T13:02:10.077Z,7.67
2018-01-26T13:04:38.733Z,4.40
2018-01-26T13:07:06.977Z,5.87
2018-01-26T13:09:35.167Z,5.23
2018-01-26T13:12:02.746Z,6.47
2018-01-26T13:14:30.281Z,6.40
2018-01-26T13:16:57.805Z,5.33
2018-01-26T13:19:25.664Z,5.17
2018-01-26T13:21:54.006Z,5.93
2018-01-26T13:24:21.702Z,5.63
2018-01-26T13:26:49.623Z,4.87
2018-01-26T13:29:17.297Z,4.43
2018-01-26T13:31:45.774Z,5.87
2018-01-26T13:34:13.741Z,5.43
2018-01-26T13:36:42.247Z,8.20
2018-01-26T13:39:09.976Z,5.33
2018-01-26T13:41:37.952Z,5.33
2018-01-26T13:44:05.926Z,5.07
2018-01-26T13:46:33.693Z,4.60
2018-01-26T13:49:02.254Z,4.60
2018-01-26T13:51:29.797Z,4.60
2018-01-26T13:53:58.110Z,4.60
2018-01-26T13:56:25.689Z,4.83
2018-01-26T13:58:53.204Z,4.70
2018-01-26T14:01:21.494Z,5.20
2018-01-26T14:03:49.417Z,4.43
2018-01-26T14:06:17.930Z,4.70
2018-01-26T14:08:45.711Z,4.70
2018-01-26T14:11:13.709Z,5.20
2018-01-26T14:13:42.240Z,4.83
2018-01-26T14:16:11.379Z,5.20
2018-01-26T14:18:39.240Z,5.53
2018-01-26T14:21:06.790Z,5.33
2018-01-26T14:23:34.417Z,5.40
2018-01-26T14:26:03.254Z,5.73
2018-01-26T14:28:30.795Z,5.83
2018-01-26T14:30:58.336Z,5.60
2018-01-26T14:33:26.967Z,5.97
2018-01-26T14:35:54.489Z,5.67
2018-01-26T14:38:22.040Z,5.83
2018-01-26T14:40:50.406Z,5.70
2018-01-26T14:43:17.958Z,5.67
2018-01-26T14:45:45.659Z,5.57
2018-01-26T14:48:13.475Z,5.97
2018-01-26T14:50:41.208Z,5.80
2018-01-26T14:53:08.972Z,6.13
2018-01-26T14:55:36.725Z,5.90
2018-01-26T14:58:04.449Z,5.50
2018-01-26T15:00:32.029Z,5.37
2018-01-26T15:03:00.350Z,5.10
2018-01-26T15:05:27.999Z,5.70
2018-01-26T15:07:55.557Z,5.20
2018-01-26T15:10:23.437Z,4.90
2018-01-26T15:12:51.181Z,4.93
2018-01-26T15:15:19.062Z,4.70
2018-01-26T15:17:46.845Z,5.03
2018-01-26T15:20:14.791Z,5.27
2018-01-26T15:22:42.969Z,5.17
2018-01-26T15:25:10.840Z,5.23
2018-01-26T15:27:38.412Z,5.50
2018-01-26T15:30:06.196Z,5.90
2018-01-26T15:32:33.822Z,6.03
2018-01-26T15:35:01.485Z,6.60
2018-01-26T15:37:29.125Z,6.50
2018-01-26T15:39:56.720Z,6.43
2018-01-26T15:42:24.313Z,7.10
2018-01-26T15:44:52.425Z,7.60
2018-01-26T15:47:20.289Z,8.00
2018-01-26T15:49:48.793Z,7.20
2018-01-26T15:52:16.688Z,7.33
2018-01-26T15:54:44.678Z,7.90
2018-01-26T15:57:13.596Z,7.73
2018-01-26T15:59:42.300Z,7.60
2018-01-26T16:02:09.876Z,8.07
2018-01-26T16:04:37.557Z,8.50
2018-01-26T16:07:05.397Z,8.53
2018-01-26T16:09:33.960Z,9.23
2018-01-26T16:12:01.524Z,8.77
2018-01-26T16:14:29.045Z,9.37
2018-01-26T16:16:57.249Z,9.13
2018-01-26T16:19:25.537Z,8.73
2018-01-26T16:21:53.059Z,8.90
2018-01-26T16:24:20.940Z,8.13
2018-01-26T16:26:50.743Z,9.87
2018-01-26T16:29:19.833Z,10.43
2018-01-26T16:31:48.293Z,10.73
2018-01-26T16:34:16.211Z,9.93
2018-01-26T16:36:45.077Z,10.30
2018-01-26T16:39:13.836Z,10.00
2018-01-26T16:41:42.805Z,9.33
2018-01-26T16:44:11.295Z,10.37
2018-01-26T16:46:39.032Z,9.97
2018-01-26T16:49:07.951Z,10.03
2018-01-26T16:51:36.126Z,12.77
2018-01-26T16:54:03.993Z,12.03
2018-01-26T16:56:31.535Z,12.43
2018-01-26T16:58:59.052Z,13.57
2018-01-26T17:01:26.784Z,12.57
2018-01-26T17:03:54.461Z,12.57
2018-01-26T17:06:22.510Z,12.13
2018-01-26T17:08:50.378Z,10.30
2018-01-26T17:11:18.554Z,10.47
2018-01-26T17:13:46.422Z,11.07
2018-01-26T17:16:14.209Z,12.13
2018-01-26T17:18:42.256Z,12.23
2018-01-26T17:21:11.766Z,11.30
2018-01-26T17:23:40.038Z,10.13
2018-01-26T17:26:07.567Z,10.67
2018-01-26T17:28:35.862Z,11.00
2018-01-26T17:31:03.417Z,10.43
2018-01-26T17:33:30.957Z,10.93
2018-01-26T17:35:59.244Z,10.20
2018-01-26T17:38:27.570Z,9.80
2018-01-26T17:40:55.185Z,10.83
2018-01-26T17:43:23.081Z,11.00
2018-01-26T17:45:50.793Z,10.17
2018-01-26T17:48:18.956Z,11.20
2018-01-26T17:50:48.401Z,12.90
2018-01-26T17:53:17.576Z,12.37
2018-01-26T17:55:45.170Z,12.30
2018-01-26T17:58:12.796Z,13.67
2018-01-26T18:00:40.651Z,14.13
2018-01-26T18:03:08.439Z,12.67
2018-01-26T18:05:36.941Z,13.20
2018-01-26T18:08:04.567Z,13.73
2018-01-26T18:10:32.085Z,12.27
2018-01-26T18:13:00.451Z,12.13
2018-01-26T18:15:28.219Z,12.17
2018-01-26T18:17:55.753Z,11.97
2018-01-26T18:20:24.146Z,11.23
2018-01-26T18:22:52.128Z,11.13
2018-01-26T18:25:20.266Z,10.93
2018-01-26T18:27:48.994Z,10.20
2018-01-26T18:30:18.060Z,10.17
2018-01-26T18:32:51.858Z,11.03
2018-01-26T18:35:20.861Z,10.60
2018-01-26T18:37:48.886Z,9.97
2018-01-26T18:40:17.234Z,10.00
2018-01-26T18:42:45.126Z,10.97
2018-01-26T18:45:12.862Z,10.97
2018-01-26T18:47:41.134Z,10.63
2018-01-26T18:50:08.681Z,10.20
2018-01-26T18:52:36.206Z,10.97
2018-01-26T18:55:03.755Z,10.57
2018-01-26T18:57:31.293Z,10.23
2018-01-26T18:59:58.818Z,9.93
2018-01-26T19:02:27.342Z,9.83
2018-01-26T19:04:55.116Z,10.27
2018-01-26T19:07:23.490Z,10.67
2018-01-26T19:09:51.449Z,11.50
2018-01-26T19:12:19.521Z,11.77
2018-01-26T19:14:54.717Z,10.70
2018-01-26T19:17:23.743Z,10.60
2018-01-26T19:19:51.365Z,10.87
2018-01-26T19:22:19.379Z,11.60
2018-01-26T19:24:47.447Z,12.87
2018-01-26T19:27:15.725Z,11.37
2018-01-26T19:29:43.392Z,11.30
2018-01-26T19:32:11.448Z,11.97
2018-01-26T19:34:38.986Z,12.47
2018-01-26T19:37:07.500Z,11.63
2018-01-26T19:39:35.476Z,11.43
2018-01-26T19:42:03.081Z,10.73
2018-01-26T19:44:31.381Z,11.67
2018-01-26T19:47:00.014Z,10.57
2018-01-26T19:49:27.546Z,10.27
2018-01-26T19:51:55.109Z,10.37
2018-01-26T19:54:22.880Z,10.00
2018-01-26T19:56:50.637Z,9.70
2018-01-26T19:59:18.426Z,10.63
2018-01-26T20:01:46.376Z,10.80
2018-01-26T20:04:27.410Z,10.63
2018-01-26T20:07:13.553Z,10.27
2018-01-26T20:09:41.097Z,11.30
2018-01-26T20:12:12.682Z,9.97
2018-01-26T20:14:40.371Z,9.13
2018-01-26T20:17:08.097Z,10.13
2018-01-26T20:19:35.711Z,10.50
2018-01-26T20:22:04.046Z,10.30
2018-01-26T20:24:31.577Z,10.27
2018-01-26T20:26:59.446Z,9.97
2018-01-26T20:29:27.065Z,10.77
2018-01-26T20:31:54.729Z,10.80
2018-01-26T20:34:22.569Z,10.27
2018-01-26T20:36:51.544Z,9.93
2018-01-26T20:39:19.726Z,10.83
2018-01-26T20:41:48.003Z,11.40
2018-01-26T20:44:16.201Z,11.83
2018-01-26T20:46:46.628Z,11.70
2018-01-26T20:49:15.643Z,10.93
2018-01-26T20:51:44.234Z,11.53
2018-01-26T20:54:12.545Z,12.23
2018-01-26T20:56:40.422Z,12.60
2018-01-26T20:59:08.069Z,12.87
2018-01-26T21:01:35.617Z,13.20
2018-01-26T21:04:03.175Z,15.70
2018-01-26T21:06:31.490Z,16.17
2018-01-26T21:08:59.044Z,16.83
2018-01-26T21:11:26.642Z,15.63
2018-01-26T21:13:56.078Z,15.67
2018-01-26T21:16:24.609Z,14.87
2018-01-26T21:18:53.058Z,13.83
2018-01-26T21:21:21.250Z,13.63
2018-01-26T21:23:49.393Z,12.50
2018-01-26T21:26:17.114Z,13.83
2018-01-26T21:28:45.773Z,13.70
2018-01-26T21:31:13.553Z,13.37
2018-01-26T21:33:41.299Z,15.00
2018-01-26T21:36:08.957Z,13.53
2018-01-26T21:38:36.829Z,13.27
2018-01-26T21:41:05.333Z,13.47
2018-01-26T21:43:33.579Z,13.90
2018-01-26T21:46:01.113Z,13.73
2018-01-26T21:48:29.436Z,14.80
2018-01-26T21:50:56.976Z,14.17
2018-01-26T21:53:24.549Z,14.93
2018-01-26T21:55:52.174Z,14.60
2018-01-26T21:58:20.907Z,15.57
2018-01-26T22:00:52.339Z,14.23
2018-01-26T22:03:21.338Z,14.97
2018-01-26T22:05:49.098Z,14.03
2018-01-26T22:08:17.481Z,15.90
2018-01-26T22:10:46.273Z,15.97
2018-01-26T22:13:14.115Z,15.27
2018-01-26T22:15:42.497Z,16.53
2018-01-26T22:18:10.413Z,16.73
2018-01-26T22:20:38.247Z,15.43
2018-01-26T22:23:05.813Z,15.80
2018-01-26T22:25:33.354Z,15.77
2018-01-26T22:28:00.914Z,15.40
2018-01-26T22:30:28.477Z,15.70
2018-01-26T22:32:56.255Z,15.50
2018-01-26T22:35:24.493Z,15.03
2018-01-26T22:37:53.040Z,15.60
2018-01-26T22:40:20.984Z,14.93
2018-01-26T22:42:49.069Z,15.73
2018-01-26T22:45:17.716Z,17.10
2018-01-26T22:47:45.639Z,16.03
2018-01-26T22:50:14.013Z,16.20
2018-01-26T22:52:41.568Z,16.10
2018-01-26T22:55:09.449Z,16.70
2018-01-26T22:57:36.973Z,16.60
2018-01-26T23:00:04.505Z,17.27
2018-01-26T23:02:32.814Z,16.10
2018-01-26T23:05:00.337Z,18.17
2018-01-26T23:07:28.656Z,16.87
2018-01-26T23:09:56.194Z,17.30
2018-01-26T23:12:23.843Z,17.30
2018-01-26T23:14:52.262Z,16.33
2018-01-26T23:17:19.993Z,17.60
2018-01-26T23:19:47.789Z,16.50
2018-01-26T23:22:16.586Z,16.40
2018-01-26T23:24:45.066Z,17.03
2018-01-26T23:27:13.547Z,17.43
2018-01-26T23:29:41.162Z,16.43
2018-01-26T23:32:09.591Z,17.67
2018-01-26T23:34:37.113Z,16.53
2018-01-26T23:37:05.409Z,17.30
2018-01-26T23:39:32.953Z,16.90
2018-01-26T23:42:01.264Z,17.47
2018-01-26T23:44:28.804Z,16.43
2018-01-26T23:46:56.350Z,16.73
2018-01-26T23:49:24.865Z,17.53
2018-01-26T23:51:52.638Z,17.67
2018-01-26T23:54:20.342Z,17.37
2018-01-26T23:56:48.278Z,17.30
2018-01-26T23:59:16.281Z,18.03
